createdAt,value
2022-10-03T00:02:21.199Z,96086.06
2022-10-03T00:05:11.824Z,96083.22
2022-10-03T00:07:54.818Z,96089.25
2022-10-03T00:10:31.083Z,96084.28
2022-10-03T00:13:09.724Z,96082.25
2022-10-03T00:15:47.225Z,96091.75
2022-10-03T00:18:27.284Z,96095.44
2022-10-03T00:21:09.270Z,96098.41
2022-10-03T00:23:46.630Z,96101.00
2022-10-03T00:26:30.707Z,96101.22
2022-10-03T00:29:20.282Z,96106.44
2022-10-03T00:32:01.410Z,96106.09
2022-10-03T00:34:40.808Z,96108.25
2022-10-03T00:37:25.105Z,96113.56
2022-10-03T00:40:09.418Z,96114.03
2022-10-03T00:43:20.561Z,96121.97
2022-10-03T00:46:36.308Z,96125.16
2022-10-03T00:49:28.630Z,96116.28
2022-10-03T00:57:15.630Z,96129.06
2022-10-03T00:59:56.885Z,96136.63
2022-10-03T01:02:43.272Z,96134.38
2022-10-03T01:05:20.398Z,96133.25
2022-10-03T01:08:03.835Z,96126.22
2022-10-03T01:10:39.396Z,96139.00
2022-10-03T01:18:31.456Z,96131.34
2022-10-03T01:21:07.414Z,96130.47
2022-10-03T01:24:04.512Z,96140.44
2022-10-03T01:26:49.240Z,96128.38
2022-10-03T01:29:42.217Z,96135.09
2022-10-03T01:32:15.191Z,96134.66
2022-10-03T01:38:45.203Z,96138.16
2022-10-03T01:41:22.152Z,96144.84
2022-10-03T01:43:54.924Z,96160.56
2022-10-03T01:46:22.935Z,96162.00
2022-10-03T01:48:58.792Z,96158.59
2022-10-03T01:51:29.474Z,96164.97
2022-10-03T02:00:56.699Z,96174.38
2022-10-03T02:03:27.317Z,96181.28
2022-10-03T02:06:01.179Z,96184.50
2022-10-03T02:08:43.764Z,96181.78
2022-10-03T02:11:12.020Z,96191.59
2022-10-03T02:13:47.483Z,96196.41
2022-10-03T02:16:30.242Z,96191.72
2022-10-03T02:24:24.043Z,96193.06
2022-10-03T02:27:20.966Z,96184.81
2022-10-03T02:30:02.992Z,96179.09
2022-10-03T02:33:04.080Z,96181.78
2022-10-03T02:35:55.591Z,96178.19
2022-10-03T02:38:42.971Z,96178.19
2022-10-03T02:49:27.168Z,96188.44
2022-10-03T02:52:26.126Z,96191.78
2022-10-03T02:55:23.534Z,96193.88
2022-10-03T02:58:15.620Z,96197.13
2022-10-03T03:01:06.856Z,96202.06
2022-10-03T03:04:05.994Z,96201.50
2022-10-03T03:12:12.277Z,96197.75
2022-10-03T03:15:07.714Z,96198.19
2022-10-03T03:17:42.068Z,96207.66
2022-10-03T03:20:25.470Z,96205.50
2022-10-03T03:23:10.037Z,96213.81
2022-10-03T03:25:51.363Z,96215.00
2022-10-03T03:32:19.274Z,96217.81
2022-10-03T03:34:54.031Z,96234.47
2022-10-03T03:37:29.547Z,96235.97
2022-10-03T03:40:08.913Z,96224.78
2022-10-03T03:42:56.629Z,96230.09
2022-10-03T03:45:41.148Z,96235.31
2022-10-03T03:48:24.402Z,96233.03
2022-10-03T03:51:12.185Z,96232.41
2022-10-03T03:53:59.493Z,96240.06
2022-10-03T03:56:56.075Z,96235.66
2022-10-03T03:59:40.869Z,96231.41
2022-10-03T04:02:22.006Z,96232.25
2022-10-03T04:05:07.910Z,96233.69
2022-10-03T04:07:50.378Z,96233.97
2022-10-03T04:10:29.732Z,96235.97
2022-10-03T04:13:18.937Z,96235.06
2022-10-03T04:16:08.618Z,96240.50
2022-10-03T04:19:00.961Z,96242.38
2022-10-03T04:22:01.047Z,96243.22
2022-10-03T04:25:00.964Z,96241.88
2022-10-03T04:28:00.133Z,96244.69
2022-10-03T04:30:38.210Z,96240.53
2022-10-03T04:33:27.859Z,96241.69
2022-10-03T04:36:39.950Z,96242.97
2022-10-03T04:39:17.382Z,96241.53
2022-10-03T04:41:53.076Z,96239.16
2022-10-03T04:44:34.765Z,96229.44
2022-10-03T04:47:10.911Z,96233.69
2022-10-03T04:49:44.494Z,96242.53
2022-10-03T04:52:20.032Z,96241.81
2022-10-03T04:54:58.167Z,96235.97
2022-10-03T04:57:36.535Z,96235.19
2022-10-03T05:00:15.495Z,96237.41
2022-10-03T05:02:50.151Z,96231.88
2022-10-03T05:05:42.930Z,96242.53
2022-10-03T05:08:22.320Z,96241.41
2022-10-03T05:10:58.915Z,96244.66
2022-10-03T05:13:42.345Z,96248.91
2022-10-03T05:16:21.957Z,96247.38
2022-10-03T05:18:56.523Z,96251.09
2022-10-03T05:21:35.031Z,96250.69
2022-10-03T05:24:15.533Z,96251.81
2022-10-03T05:26:50.038Z,96251.31
2022-10-03T05:29:28.239Z,96257.50
2022-10-03T05:32:11.489Z,96252.34
2022-10-03T05:35:04.761Z,96265.16
2022-10-03T05:37:50.966Z,96269.38
2022-10-03T05:40:24.268Z,96262.97
2022-10-03T05:43:05.962Z,96266.03
2022-10-03T05:45:49.002Z,96274.78
2022-10-03T05:48:32.487Z,96268.66
2022-10-03T05:57:39.245Z,96282.03
2022-10-03T06:00:15.582Z,96277.50
2022-10-03T06:03:18.265Z,96280.19
2022-10-03T06:05:58.250Z,96293.13
2022-10-03T06:08:52.491Z,96298.13
2022-10-03T06:11:48.940Z,96303.31
2022-10-03T06:14:34.711Z,96297.13
2022-10-03T06:22:47.578Z,96314.31
2022-10-03T06:25:52.791Z,96321.72
2022-10-03T06:28:56.030Z,96325.69
2022-10-03T06:31:57.403Z,96329.66
2022-10-03T06:34:44.354Z,96330.19
2022-10-03T06:37:41.803Z,96346.19
2022-10-03T06:45:56.611Z,96347.13
2022-10-03T06:48:58.142Z,96337.44
2022-10-03T06:51:52.906Z,96343.22
2022-10-03T06:54:54.616Z,96343.75
2022-10-03T06:57:39.208Z,96353.72
2022-10-03T07:00:14.747Z,96348.94
2022-10-03T07:08:22.336Z,96353.94
2022-10-03T07:11:15.474Z,96346.94
2022-10-03T07:14:00.195Z,96350.78
2022-10-03T07:16:53.023Z,96347.19
2022-10-03T07:19:38.389Z,96347.19
2022-10-03T07:22:41.232Z,96348.66
2022-10-03T07:29:13.188Z,96354.84
2022-10-03T07:32:00.894Z,96361.50
2022-10-03T07:35:02.227Z,96365.88
2022-10-03T07:38:04.258Z,96372.97
2022-10-03T07:41:04.754Z,96373.19
2022-10-03T07:44:06.270Z,96371.94
2022-10-03T07:52:13.257Z,96382.34
2022-10-03T07:54:59.279Z,96383.22
2022-10-03T07:58:03.967Z,96386.97
2022-10-03T08:00:46.979Z,96390.53
2022-10-03T08:03:56.884Z,96387.59
2022-10-03T08:06:35.369Z,96383.53
2022-10-03T08:16:01.089Z,96379.13
2022-10-03T08:19:01.912Z,96390.78
2022-10-03T08:21:38.597Z,96390.19
2022-10-03T08:24:36.528Z,96397.97
2022-10-03T08:27:34.679Z,96392.78
2022-10-03T08:30:31.698Z,96403.41
2022-10-03T08:33:42.679Z,96404.03
2022-10-03T08:36:42.696Z,96409.00
2022-10-03T08:39:37.211Z,96399.25
2022-10-03T08:42:33.250Z,96408.16
2022-10-03T08:45:26.825Z,96410.22
2022-10-03T08:48:38.094Z,96402.25
2022-10-03T08:51:38.901Z,96411.34
2022-10-03T08:54:25.047Z,96409.38
2022-10-03T08:57:24.833Z,96419.13
2022-10-03T09:00:07.638Z,96417.72
2022-10-03T09:03:39.306Z,96426.06
2022-10-03T09:07:18.920Z,96417.72
2022-10-03T09:10:14.050Z,96426.25
2022-10-03T09:13:19.743Z,96414.78
2022-10-03T09:16:18.538Z,96422.09
2022-10-03T09:19:04.854Z,96410.63
2022-10-03T09:22:04.937Z,96408.34
2022-10-03T09:25:06.303Z,96415.63
2022-10-03T09:28:02.329Z,96417.28
2022-10-03T09:30:48.965Z,96418.09
2022-10-03T09:36:24.962Z,96428.66
2022-10-03T09:39:17.777Z,96419.69
2022-10-03T09:42:25.070Z,96426.19
2022-10-03T09:45:23.580Z,96421.63
2022-10-03T09:48:28.032Z,96422.66
2022-10-03T09:51:26.248Z,96425.09
2022-10-03T09:57:08.733Z,96417.91
2022-10-03T10:00:02.775Z,96416.59
2022-10-03T10:03:19.698Z,96420.47
2022-10-03T10:06:15.272Z,96413.53
2022-10-03T10:09:27.532Z,96411.59
2022-10-03T10:12:18.523Z,96410.53
2022-10-03T10:19:05.093Z,96402.06
2022-10-03T10:21:59.009Z,96400.16
2022-10-03T10:24:58.138Z,96393.41
2022-10-03T10:28:02.777Z,96400.13
2022-10-03T10:31:04.749Z,96408.97
2022-10-03T10:37:18.519Z,96390.94
2022-10-03T10:40:12.008Z,96384.56
2022-10-03T10:43:20.647Z,96388.94
2022-10-03T10:46:16.751Z,96389.53
2022-10-03T10:49:35.134Z,96387.94
2022-10-03T10:52:46.141Z,96381.94
2022-10-03T11:01:01.234Z,96386.81
2022-10-03T11:04:19.246Z,96385.44
2022-10-03T11:07:19.951Z,96383.72
2022-10-03T11:10:31.082Z,96384.19
2022-10-03T11:13:36.109Z,96385.69
2022-10-03T11:16:42.877Z,96378.28
2022-10-03T11:19:35.287Z,96374.19
2022-10-03T11:22:38.703Z,96371.34
2022-10-03T11:25:40.402Z,96362.63
2022-10-03T11:28:59.865Z,96376.91
2022-10-03T11:31:50.215Z,96369.47
2022-10-03T11:34:57.626Z,96368.03
2022-10-03T11:37:37.164Z,96360.84
2022-10-03T11:40:23.438Z,96355.38
2022-10-03T11:43:02.118Z,96365.47
2022-10-03T11:45:33.959Z,96363.81
2022-10-03T11:48:21.294Z,96364.88
2022-10-03T11:50:54.965Z,96365.09
2022-10-03T11:53:32.028Z,96364.25
2022-10-03T11:56:19.998Z,96363.47
2022-10-03T11:59:01.886Z,96359.53
2022-10-03T12:01:40.641Z,96359.44
2022-10-03T12:04:18.147Z,96350.13
2022-10-03T12:07:17.763Z,96346.06
2022-10-03T12:10:01.341Z,96349.56
2022-10-03T12:12:43.767Z,96348.84
2022-10-03T12:15:31.205Z,96349.53
2022-10-03T12:18:08.175Z,96344.78
2022-10-03T12:23:25.081Z,96344.28
2022-10-03T12:25:54.448Z,96338.91
2022-10-03T12:28:25.731Z,96337.94
2022-10-03T12:31:00.204Z,96334.03
2022-10-03T12:33:43.155Z,96329.41
2022-10-03T12:36:16.183Z,96330.59
2022-10-03T12:39:10.373Z,96330.03
2022-10-03T12:41:57.179Z,96334.44
2022-10-03T12:44:37.809Z,96333.25
2022-10-03T12:47:37.626Z,96341.00
2022-10-03T12:50:27.798Z,96336.13
2022-10-03T12:53:21.176Z,96334.06
2022-10-03T12:56:04.751Z,96332.53
2022-10-03T12:58:44.350Z,96327.84
2022-10-03T13:01:24.423Z,96321.88
2022-10-03T13:04:05.986Z,96324.94
2022-10-03T13:07:02.920Z,96324.56
2022-10-03T13:09:51.249Z,96317.81
2022-10-03T13:12:29.359Z,96314.47
2022-10-03T13:15:45.468Z,96317.63
2022-10-03T13:18:29.183Z,96309.00
2022-10-03T13:21:21.379Z,96313.41
2022-10-03T13:23:59.919Z,96319.03
2022-10-03T13:26:40.092Z,96323.94
2022-10-03T13:29:27.059Z,96318.38
2022-10-03T13:32:13.523Z,96312.00
2022-10-03T13:35:23.366Z,96312.88
2022-10-03T13:38:10.856Z,96316.59
2022-10-03T13:40:47.198Z,96311.66
2022-10-03T13:43:21.692Z,96306.84
2022-10-03T13:45:57.136Z,96314.09
2022-10-03T13:48:31.805Z,96308.63
2022-10-03T13:51:05.470Z,96309.19
2022-10-03T13:53:55.459Z,96304.06
2022-10-03T13:56:40.278Z,96302.00
2022-10-03T13:59:28.824Z,96294.09
2022-10-03T14:02:08.927Z,96290.16
2022-10-03T14:05:00.890Z,96278.16
2022-10-03T14:07:45.199Z,96280.81
2022-10-03T14:10:33.592Z,96282.06
2022-10-03T14:13:17.434Z,96272.84
2022-10-03T14:15:51.313Z,96272.13
2022-10-03T14:18:33.281Z,96272.72
2022-10-03T14:21:28.190Z,96280.19
2022-10-03T14:24:14.166Z,96278.09
2022-10-03T14:26:50.211Z,96276.59
2022-10-03T14:29:27.823Z,96279.06
2022-10-03T14:32:02.290Z,96282.09
2022-10-03T14:34:47.636Z,96282.94
2022-10-03T14:37:27.097Z,96282.63
2022-10-03T14:40:13.620Z,96283.91
2022-10-03T14:43:03.060Z,96288.56
2022-10-03T14:45:35.460Z,96289.13
2022-10-03T14:48:12.111Z,96279.91
2022-10-03T14:50:44.039Z,96293.69
2022-10-03T14:53:20.385Z,96284.31
2022-10-03T14:56:00.626Z,96287.09
2022-10-03T14:58:32.673Z,96274.66
2022-10-03T15:01:10.738Z,96276.16
2022-10-03T15:03:40.622Z,96279.72
2022-10-03T15:06:50.263Z,96269.94
2022-10-03T15:09:21.648Z,96272.72
2022-10-03T15:11:54.189Z,96266.91
2022-10-03T15:14:24.630Z,96270.19
2022-10-03T15:16:55.983Z,96266.06
2022-10-03T15:19:31.896Z,96265.22
2022-10-03T15:22:07.629Z,96264.53
2022-10-03T15:24:39.111Z,96266.34
2022-10-03T15:27:13.833Z,96265.22
2022-10-03T15:29:44.954Z,96268.53
2022-10-03T15:34:51.374Z,96273.63
2022-10-03T15:37:30.250Z,96272.41
2022-10-03T15:40:03.257Z,96271.66
2022-10-03T15:42:32.740Z,96267.91
2022-10-03T15:45:06.433Z,96262.53
2022-10-03T15:47:36.754Z,96266.31
2022-10-03T15:50:13.204Z,96263.00
2022-10-03T15:52:46.234Z,96272.09
2022-10-03T15:55:19.731Z,96267.81
2022-10-03T15:57:50.552Z,96273.97
2022-10-03T16:00:24.526Z,96276.44
2022-10-03T16:03:00.206Z,96275.41
2022-10-03T16:05:28.672Z,96273.44
2022-10-03T16:08:05.191Z,96267.91
2022-10-03T16:10:38.799Z,96279.31
2022-10-03T16:13:20.164Z,96268.94
2022-10-03T16:16:08.857Z,96272.75
2022-10-03T16:18:51.957Z,96272.59
2022-10-03T16:21:40.429Z,96274.81
2022-10-03T16:24:22.101Z,96272.31
2022-10-03T16:26:55.857Z,96279.81
2022-10-03T16:29:32.354Z,96280.63
2022-10-03T16:32:04.940Z,96275.47
2022-10-03T16:34:35.300Z,96284.13
2022-10-03T16:37:06.279Z,96283.94
2022-10-03T16:39:38.567Z,96282.91
2022-10-03T16:42:14.296Z,96283.28
2022-10-03T16:44:51.447Z,96282.59
2022-10-03T16:47:29.481Z,96285.56
2022-10-03T16:50:16.810Z,96285.00
2022-10-03T16:52:47.975Z,96286.28
2022-10-03T16:55:22.519Z,96279.88
2022-10-03T16:57:53.955Z,96284.53
2022-10-03T17:00:24.565Z,96287.28
2022-10-03T17:02:53.692Z,96288.81
2022-10-03T17:05:22.281Z,96289.94
2022-10-03T17:07:54.787Z,96292.78
2022-10-03T17:10:35.247Z,96300.50
2022-10-03T17:13:10.787Z,96294.44
2022-10-03T17:15:49.267Z,96301.47
2022-10-03T17:18:26.133Z,96294.34
2022-10-03T17:20:57.700Z,96294.34
2022-10-03T17:23:31.160Z,96289.66
2022-10-03T17:26:05.991Z,96296.22
2022-10-03T17:28:41.449Z,96299.56
2022-10-03T17:31:29.916Z,96295.06
2022-10-03T17:34:06.270Z,96289.63
2022-10-03T17:37:04.975Z,96293.19
2022-10-03T17:39:40.993Z,96297.91
2022-10-03T17:42:24.498Z,96297.13
2022-10-03T17:45:00.319Z,96287.25
2022-10-03T17:47:41.117Z,96299.13
2022-10-03T17:50:15.640Z,96290.72
2022-10-03T17:52:47.179Z,96292.00
2022-10-03T17:55:20.280Z,96293.69
2022-10-03T17:57:52.638Z,96301.84
2022-10-03T18:00:22.282Z,96300.88
2022-10-03T18:02:59.159Z,96303.88
2022-10-03T18:05:30.448Z,96301.69
2022-10-03T18:08:05.816Z,96304.31
2022-10-03T18:10:38.794Z,96300.88
2022-10-03T18:13:18.052Z,96301.97
2022-10-03T18:16:18.342Z,96303.13
2022-10-03T18:19:10.785Z,96302.31
2022-10-03T18:22:03.313Z,96300.28
2022-10-03T18:24:52.747Z,96294.34
2022-10-03T18:27:44.514Z,96291.38
2022-10-03T18:30:20.172Z,96295.03
2022-10-03T18:32:50.254Z,96295.03
2022-10-03T18:35:22.985Z,96291.38
2022-10-03T18:37:59.555Z,96296.81
2022-10-03T18:40:30.510Z,96297.44
2022-10-03T18:43:00.433Z,96297.91
2022-10-03T18:45:32.395Z,96299.00
2022-10-03T18:48:08.285Z,96300.75
2022-10-03T18:50:51.254Z,96304.22
2022-10-03T18:53:28.135Z,96295.19
2022-10-03T18:56:00.511Z,96297.66
2022-10-03T18:58:32.066Z,96303.72
2022-10-03T19:01:06.244Z,96293.75
2022-10-03T19:03:40.286Z,96296.38
2022-10-03T19:06:19.622Z,96297.88
2022-10-03T19:08:53.275Z,96302.66
2022-10-03T19:11:26.078Z,96300.16
2022-10-03T19:14:02.277Z,96302.88
2022-10-03T19:16:45.239Z,96305.38
2022-10-03T19:19:26.270Z,96301.13
2022-10-03T19:21:54.610Z,96295.25
2022-10-03T19:24:46.506Z,96300.38
2022-10-03T19:27:18.826Z,96301.47
2022-10-03T19:29:50.407Z,96302.16
2022-10-03T19:32:26.756Z,96296.13
2022-10-03T19:34:58.197Z,96294.81
2022-10-03T19:37:44.539Z,96296.47
2022-10-03T19:40:16.449Z,96285.66
2022-10-03T19:42:48.378Z,96290.06
2022-10-03T19:45:19.710Z,96291.59
2022-10-03T19:47:54.339Z,96285.28
2022-10-03T19:50:28.232Z,96287.91
2022-10-03T19:52:56.896Z,96290.72
2022-10-03T19:55:30.972Z,96286.56
2022-10-03T19:58:02.054Z,96290.47
2022-10-03T20:00:32.944Z,96293.44
2022-10-03T20:03:18.159Z,96295.22
2022-10-03T20:05:55.801Z,96297.47
2022-10-03T20:08:27.383Z,96301.47
2022-10-03T20:11:15.426Z,96296.81
2022-10-03T20:13:46.216Z,96294.91
2022-10-03T20:16:18.322Z,96294.56
2022-10-03T20:18:50.191Z,96290.03
2022-10-03T20:21:21.800Z,96296.66
2022-10-03T20:23:50.717Z,96297.00
2022-10-03T20:26:30.446Z,96297.53
2022-10-03T20:29:28.567Z,96295.16
2022-10-03T20:32:15.416Z,96299.13
2022-10-03T20:34:50.822Z,96294.16
2022-10-03T20:37:36.666Z,96286.44
2022-10-03T20:40:17.467Z,96292.38
2022-10-03T20:42:49.308Z,96289.16
2022-10-03T20:45:23.546Z,96280.72
2022-10-03T20:48:00.327Z,96286.28
2022-10-03T20:50:33.547Z,96282.84
2022-10-03T20:53:03.235Z,96279.63
2022-10-03T20:55:34.188Z,96287.53
2022-10-03T20:58:14.339Z,96279.13
2022-10-03T21:00:47.474Z,96288.69
2022-10-03T21:03:27.454Z,96277.56
2022-10-03T21:05:59.203Z,96276.53
2022-10-03T21:08:30.107Z,96282.16
2022-10-03T21:11:02.507Z,96281.53
2022-10-03T21:13:34.784Z,96273.84
2022-10-03T21:16:05.933Z,96274.13
2022-10-03T21:18:38.314Z,96277.69
2022-10-03T21:21:13.835Z,96274.03
2022-10-03T21:23:48.339Z,96274.13
2022-10-03T21:26:22.280Z,96267.38
2022-10-03T21:28:49.988Z,96274.69
2022-10-03T21:31:31.965Z,96264.59
2022-10-03T21:34:17.334Z,96260.88
2022-10-03T21:36:52.872Z,96262.13
2022-10-03T21:39:33.878Z,96264.34
2022-10-03T21:42:13.670Z,96261.44
2022-10-03T21:44:59.527Z,96262.06
2022-10-03T21:47:45.088Z,96260.50
2022-10-03T21:50:20.588Z,96262.00
2022-10-03T21:53:11.867Z,96272.91
2022-10-03T21:56:00.086Z,96272.88
2022-10-03T21:58:43.664Z,96266.03
2022-10-03T22:01:26.857Z,96250.41
2022-10-03T22:04:03.324Z,96243.69
2022-10-03T22:06:38.058Z,96240.84
2022-10-03T22:09:13.930Z,96232.94
2022-10-03T22:11:49.953Z,96231.28
2022-10-03T22:14:29.585Z,96225.38
2022-10-03T22:17:06.927Z,96226.16
2022-10-03T22:19:39.963Z,96220.34
2022-10-03T22:22:29.761Z,96222.34
2022-10-03T22:25:16.428Z,96210.97
2022-10-03T22:27:52.503Z,96203.41
2022-10-03T22:30:22.227Z,96201.38
2022-10-03T22:33:08.184Z,96205.00
2022-10-03T22:35:50.312Z,96208.00
2022-10-03T22:38:21.424Z,96212.28
2022-10-03T22:40:51.639Z,96203.50
2022-10-03T22:43:20.684Z,96203.63
2022-10-03T22:48:24.364Z,96194.59
2022-10-03T22:50:55.287Z,96193.16
2022-10-03T22:56:45.150Z,96187.00
2022-10-03T22:59:16.271Z,96186.91
2022-10-03T23:01:46.928Z,96190.47
2022-10-03T23:04:23.953Z,96185.59
2022-10-03T23:07:12.005Z,96193.59
2022-10-03T23:09:50.100Z,96203.59
2022-10-03T23:23:01.750Z,96183.75
2022-10-03T23:25:33.831Z,96188.34
2022-10-03T23:28:17.455Z,96184.91
2022-10-03T23:30:50.496Z,96190.44
2022-10-03T23:33:19.184Z,96183.66
2022-10-03T23:35:47.367Z,96189.50
2022-10-03T23:43:29.148Z,96185.00
2022-10-03T23:45:59.537Z,96180.34
2022-10-03T23:48:28.575Z,96188.75
2022-10-03T23:50:58.639Z,96182.28
2022-10-03T23:53:30.338Z,96184.59
2022-10-03T23:55:58.874Z,96179.59
2022-10-03T23:58:30.335Z,96189.50
